sensor_id;sensor_type;location;lat;lon;timestamp;pressure;altitude;pressure_sealevel;temperature;humidity
76553;BME280;65395;53.168;18.156;2023-09-30T00:01:58;100965.29;;;17.89;79.78
76553;BME280;65395;53.168;18.156;2023-09-30T00:04:25;100960.41;;;17.91;79.51
76553;BME280;65395;53.168;18.156;2023-09-30T00:06:54;100966.83;;;17.92;79.80
76553;BME280;65395;53.168;18.156;2023-09-30T00:09:20;100967.43;;;17.92;79.62
76553;BME280;65395;53.168;18.156;2023-09-30T00:11:48;100972.39;;;17.94;79.32
76553;BME280;65395;53.168;18.156;2023-09-30T00:14:15;100974.96;;;17.95;79.49
76553;BME280;65395;53.168;18.156;2023-09-30T00:16:43;100974.95;;;17.97;79.19
76553;BME280;65395;53.168;18.156;2023-09-30T00:19:10;100975.09;;;17.99;79.14
76553;BME280;65395;53.168;18.156;2023-09-30T00:21:37;100980.59;;;18.01;79.40
76553;BME280;65395;53.168;18.156;2023-09-30T00:24:04;100980.95;;;18.03;79.11
76553;BME280;65395;53.168;18.156;2023-09-30T00:26:31;100978.44;;;18.05;78.76
76553;BME280;65395;53.168;18.156;2023-09-30T00:28:58;100977.69;;;18.07;78.96
76553;BME280;65395;53.168;18.156;2023-09-30T00:31:25;100973.96;;;18.10;79.15
76553;BME280;65395;53.168;18.156;2023-09-30T00:33:52;100977.92;;;18.12;79.17
76553;BME280;65395;53.168;18.156;2023-09-30T00:36:19;100975.90;;;18.15;78.69
76553;BME280;65395;53.168;18.156;2023-09-30T00:38:46;100967.30;;;18.15;78.55
76553;BME280;65395;53.168;18.156;2023-09-30T00:41:12;100965.23;;;18.17;78.32
76553;BME280;65395;53.168;18.156;2023-09-30T00:43:40;100968.94;;;18.21;78.16
76553;BME280;65395;53.168;18.156;2023-09-30T00:46:33;100968.64;;;18.23;77.97
76553;BME280;65395;53.168;18.156;2023-09-30T00:49:01;100970.09;;;18.27;77.79
76553;BME280;65395;53.168;18.156;2023-09-30T00:51:29;100971.58;;;18.31;77.58
76553;BME280;65395;53.168;18.156;2023-09-30T00:53:59;100976.39;;;18.33;77.72
76553;BME280;65395;53.168;18.156;2023-09-30T00:56:27;100976.10;;;18.35;77.90
76553;BME280;65395;53.168;18.156;2023-09-30T00:58:55;100976.73;;;18.37;77.63
76553;BME280;65395;53.168;18.156;2023-09-30T01:01:22;100975.39;;;18.37;77.34
76553;BME280;65395;53.168;18.156;2023-09-30T01:03:50;100976.11;;;18.40;77.20
76553;BME280;65395;53.168;18.156;2023-09-30T01:06:18;100973.86;;;18.41;77.78
76553;BME280;65395;53.168;18.156;2023-09-30T01:08:45;100975.13;;;18.41;77.77
76553;BME280;65395;53.168;18.156;2023-09-30T01:11:12;100978.15;;;18.40;77.61
76553;BME280;65395;53.168;18.156;2023-09-30T01:13:40;100973.73;;;18.40;77.35
76553;BME280;65395;53.168;18.156;2023-09-30T01:16:10;100972.55;;;18.41;77.05
76553;BME280;65395;53.168;18.156;2023-09-30T01:18:39;100973.98;;;18.43;76.99
76553;BME280;65395;53.168;18.156;2023-09-30T01:21:09;100981.12;;;18.45;76.73
76553;BME280;65395;53.168;18.156;2023-09-30T01:23:37;100989.70;;;18.47;76.40
76553;BME280;65395;53.168;18.156;2023-09-30T01:26:06;100990.53;;;18.48;76.18
76553;BME280;65395;53.168;18.156;2023-09-30T01:28:35;100995.00;;;18.52;75.85
76553;BME280;65395;53.168;18.156;2023-09-30T01:31:03;100994.11;;;18.55;75.79
76553;BME280;65395;53.168;18.156;2023-09-30T01:33:31;100990.14;;;18.59;75.32
76553;BME280;65395;53.168;18.156;2023-09-30T01:35:59;100988.64;;;18.64;75.33
76553;BME280;65395;53.168;18.156;2023-09-30T01:38:26;100985.21;;;18.69;75.04
76553;BME280;65395;53.168;18.156;2023-09-30T01:40:53;100986.73;;;18.73;74.79
76553;BME280;65395;53.168;18.156;2023-09-30T01:43:20;100986.14;;;18.78;74.67
76553;BME280;65395;53.168;18.156;2023-09-30T01:45:47;100987.35;;;18.82;74.60
76553;BME280;65395;53.168;18.156;2023-09-30T01:48:14;100993.34;;;18.86;74.50
76553;BME280;65395;53.168;18.156;2023-09-30T01:50:41;100988.98;;;18.83;74.64
76553;BME280;65395;53.168;18.156;2023-09-30T01:53:08;100996.93;;;18.86;74.66
76553;BME280;65395;53.168;18.156;2023-09-30T01:55:36;100992.96;;;18.84;74.74
76553;BME280;65395;53.168;18.156;2023-09-30T01:58:04;100999.13;;;18.81;74.68
76553;BME280;65395;53.168;18.156;2023-09-30T02:00:31;100996.35;;;18.75;74.99
76553;BME280;65395;53.168;18.156;2023-09-30T02:02:58;100998.77;;;18.70;75.07
76553;BME280;65395;53.168;18.156;2023-09-30T02:05:25;101006.83;;;18.65;75.20
76553;BME280;65395;53.168;18.156;2023-09-30T02:07:52;101009.30;;;18.60;75.38
76553;BME280;65395;53.168;18.156;2023-09-30T02:10:19;101006.77;;;18.52;75.27
76553;BME280;65395;53.168;18.156;2023-09-30T02:12:47;101006.66;;;18.47;75.49
76553;BME280;65395;53.168;18.156;2023-09-30T02:15:14;101008.91;;;18.44;75.70
76553;BME280;65395;53.168;18.156;2023-09-30T02:17:41;101003.95;;;18.41;75.55
76553;BME280;65395;53.168;18.156;2023-09-30T02:20:12;101005.76;;;18.40;75.49
76553;BME280;65395;53.168;18.156;2023-09-30T02:22:42;101001.23;;;18.34;75.58
76553;BME280;65395;53.168;18.156;2023-09-30T02:25:11;101009.57;;;18.39;75.92
76553;BME280;65395;53.168;18.156;2023-09-30T02:27:40;101008.59;;;18.38;75.77
76553;BME280;65395;53.168;18.156;2023-09-30T02:30:10;101009.42;;;18.38;75.58
76553;BME280;65395;53.168;18.156;2023-09-30T02:32:38;101018.36;;;18.38;75.68
76553;BME280;65395;53.168;18.156;2023-09-30T02:35:06;101017.52;;;18.40;75.81
76553;BME280;65395;53.168;18.156;2023-09-30T02:37:34;101017.45;;;18.42;75.78
76553;BME280;65395;53.168;18.156;2023-09-30T02:40:03;101018.48;;;18.44;75.80
76553;BME280;65395;53.168;18.156;2023-09-30T02:42:37;101018.89;;;18.42;75.80
76553;BME280;65395;53.168;18.156;2023-09-30T02:45:06;101020.99;;;18.42;75.92
76553;BME280;65395;53.168;18.156;2023-09-30T02:47:35;101023.88;;;18.41;76.00
76553;BME280;65395;53.168;18.156;2023-09-30T02:50:02;101023.68;;;18.40;76.32
76553;BME280;65395;53.168;18.156;2023-09-30T02:52:31;101021.54;;;18.39;76.65
76553;BME280;65395;53.168;18.156;2023-09-30T02:54:58;101023.58;;;18.39;76.39
76553;BME280;65395;53.168;18.156;2023-09-30T02:57:25;101026.25;;;18.39;76.84
76553;BME280;65395;53.168;18.156;2023-09-30T02:59:54;101026.42;;;18.40;76.90
76553;BME280;65395;53.168;18.156;2023-09-30T03:02:22;101031.97;;;18.41;76.92
76553;BME280;65395;53.168;18.156;2023-09-30T03:04:50;101038.90;;;18.43;77.01
76553;BME280;65395;53.168;18.156;2023-09-30T03:07:19;101037.96;;;18.44;77.49
76553;BME280;65395;53.168;18.156;2023-09-30T03:09:46;101044.36;;;18.46;77.57
76553;BME280;65395;53.168;18.156;2023-09-30T03:12:13;101042.66;;;18.47;77.63
76553;BME280;65395;53.168;18.156;2023-09-30T03:14:40;101044.67;;;18.48;77.76
76553;BME280;65395;53.168;18.156;2023-09-30T03:17:07;101045.99;;;18.49;77.73
76553;BME280;65395;53.168;18.156;2023-09-30T03:19:38;101044.84;;;18.49;77.76
76553;BME280;65395;53.168;18.156;2023-09-30T03:22:05;101042.52;;;18.48;77.57
76553;BME280;65395;53.168;18.156;2023-09-30T03:24:32;101039.52;;;18.47;77.80
76553;BME280;65395;53.168;18.156;2023-09-30T03:26:59;101046.81;;;18.46;77.80
76553;BME280;65395;53.168;18.156;2023-09-30T03:29:26;101049.55;;;18.44;78.53
76553;BME280;65395;53.168;18.156;2023-09-30T03:31:53;101051.92;;;18.40;78.67
76553;BME280;65395;53.168;18.156;2023-09-30T03:34:20;101051.11;;;18.37;78.87
76553;BME280;65395;53.168;18.156;2023-09-30T03:36:47;101045.63;;;18.33;78.97
76553;BME280;65395;53.168;18.156;2023-09-30T03:39:15;101053.17;;;18.28;79.01
76553;BME280;65395;53.168;18.156;2023-09-30T03:41:44;101054.48;;;18.25;79.43
76553;BME280;65395;53.168;18.156;2023-09-30T03:44:11;101060.23;;;18.21;79.50
76553;BME280;65395;53.168;18.156;2023-09-30T03:46:38;101063.97;;;18.17;79.69
76553;BME280;65395;53.168;18.156;2023-09-30T03:49:05;101071.28;;;18.13;79.69
76553;BME280;65395;53.168;18.156;2023-09-30T03:51:34;101077.05;;;18.10;80.12
76553;BME280;65395;53.168;18.156;2023-09-30T03:54:03;101077.56;;;18.08;80.00
76553;BME280;65395;53.168;18.156;2023-09-30T03:56:30;101078.78;;;18.05;80.39
76553;BME280;65395;53.168;18.156;2023-09-30T03:58:57;101079.23;;;18.03;80.28
76553;BME280;65395;53.168;18.156;2023-09-30T04:01:25;101082.97;;;18.02;80.93
76553;BME280;65395;53.168;18.156;2023-09-30T04:03:53;101084.33;;;17.99;81.06
76553;BME280;65395;53.168;18.156;2023-09-30T04:06:22;101094.45;;;17.99;81.03
76553;BME280;65395;53.168;18.156;2023-09-30T04:08:50;101101.10;;;17.99;80.86
76553;BME280;65395;53.168;18.156;2023-09-30T04:11:17;101110.29;;;18.00;80.91
76553;BME280;65395;53.168;18.156;2023-09-30T04:13:45;101117.63;;;18.01;80.87
76553;BME280;65395;53.168;18.156;2023-09-30T04:16:12;101118.63;;;18.01;80.93
76553;BME280;65395;53.168;18.156;2023-09-30T04:18:39;101126.77;;;18.02;81.38
76553;BME280;65395;53.168;18.156;2023-09-30T04:21:06;101136.88;;;18.00;81.33
76553;BME280;65395;53.168;18.156;2023-09-30T04:23:34;101150.44;;;17.98;80.46
76553;BME280;65395;53.168;18.156;2023-09-30T04:26:03;101142.20;;;17.94;79.39
76553;BME280;65395;53.168;18.156;2023-09-30T04:28:30;101146.38;;;17.92;79.48
76553;BME280;65395;53.168;18.156;2023-09-30T04:30:57;101156.59;;;17.90;79.15
76553;BME280;65395;53.168;18.156;2023-09-30T04:33:24;101159.77;;;17.88;79.00
76553;BME280;65395;53.168;18.156;2023-09-30T04:35:51;101168.67;;;17.85;78.74
76553;BME280;65395;53.168;18.156;2023-09-30T04:38:18;101169.27;;;17.83;78.60
76553;BME280;65395;53.168;18.156;2023-09-30T04:40:45;101182.00;;;17.81;78.18
76553;BME280;65395;53.168;18.156;2023-09-30T04:43:14;101185.71;;;17.77;77.90
76553;BME280;65395;53.168;18.156;2023-09-30T04:45:41;101187.39;;;17.73;77.73
76553;BME280;65395;53.168;18.156;2023-09-30T04:48:08;101194.80;;;17.70;77.09
76553;BME280;65395;53.168;18.156;2023-09-30T04:50:35;101201.46;;;17.67;77.10
76553;BME280;65395;53.168;18.156;2023-09-30T04:53:03;101205.71;;;17.63;76.63
76553;BME280;65395;53.168;18.156;2023-09-30T04:55:29;101215.45;;;17.59;76.55
76553;BME280;65395;53.168;18.156;2023-09-30T04:57:56;101217.17;;;17.55;76.57
76553;BME280;65395;53.168;18.156;2023-09-30T05:00:23;101228.73;;;17.52;76.41
76553;BME280;65395;53.168;18.156;2023-09-30T05:02:52;101232.98;;;17.49;76.46
76553;BME280;65395;53.168;18.156;2023-09-30T05:05:19;101241.91;;;17.44;76.39
76553;BME280;65395;53.168;18.156;2023-09-30T05:07:46;101242.73;;;17.40;76.51
76553;BME280;65395;53.168;18.156;2023-09-30T05:10:14;101253.19;;;17.37;76.16
76553;BME280;65395;53.168;18.156;2023-09-30T05:12:43;101250.48;;;17.35;76.46
76553;BME280;65395;53.168;18.156;2023-09-30T05:15:14;101250.34;;;17.33;76.10
76553;BME280;65395;53.168;18.156;2023-09-30T05:17:42;101261.11;;;17.32;76.24
76553;BME280;65395;53.168;18.156;2023-09-30T05:20:11;101270.67;;;17.32;75.92
76553;BME280;65395;53.168;18.156;2023-09-30T05:22:39;101276.01;;;17.30;75.95
76553;BME280;65395;53.168;18.156;2023-09-30T05:25:10;101283.98;;;17.28;75.95
76553;BME280;65395;53.168;18.156;2023-09-30T05:27:37;101286.89;;;17.23;75.43
76553;BME280;65395;53.168;18.156;2023-09-30T05:30:05;101291.33;;;17.19;74.82
76553;BME280;65395;53.168;18.156;2023-09-30T05:32:33;101291.84;;;17.16;75.10
76553;BME280;65395;53.168;18.156;2023-09-30T05:35:01;101294.95;;;17.14;74.47
76553;BME280;65395;53.168;18.156;2023-09-30T05:37:31;101301.41;;;17.11;74.78
76553;BME280;65395;53.168;18.156;2023-09-30T05:39:59;101297.41;;;17.10;75.03
76553;BME280;65395;53.168;18.156;2023-09-30T05:42:26;101300.58;;;17.09;74.96
76553;BME280;65395;53.168;18.156;2023-09-30T05:44:53;101305.98;;;17.06;75.09
76553;BME280;65395;53.168;18.156;2023-09-30T05:47:20;101306.55;;;17.02;74.73
76553;BME280;65395;53.168;18.156;2023-09-30T05:49:47;101309.92;;;16.96;74.14
76553;BME280;65395;53.168;18.156;2023-09-30T05:52:13;101320.70;;;16.92;73.70
76553;BME280;65395;53.168;18.156;2023-09-30T05:54:40;101321.45;;;16.90;73.46
76553;BME280;65395;53.168;18.156;2023-09-30T05:57:07;101326.30;;;16.88;72.57
76553;BME280;65395;53.168;18.156;2023-09-30T05:59:35;101327.91;;;16.88;72.61
76553;BME280;65395;53.168;18.156;2023-09-30T06:02:02;101340.50;;;16.90;72.70
76553;BME280;65395;53.168;18.156;2023-09-30T06:04:29;101336.27;;;16.91;71.81
76553;BME280;65395;53.168;18.156;2023-09-30T06:06:56;101337.69;;;16.92;72.04
76553;BME280;65395;53.168;18.156;2023-09-30T06:09:23;101346.11;;;16.95;71.26
76553;BME280;65395;53.168;18.156;2023-09-30T06:11:51;101339.67;;;16.97;71.01
76553;BME280;65395;53.168;18.156;2023-09-30T06:14:18;101340.98;;;16.99;71.44
76553;BME280;65395;53.168;18.156;2023-09-30T06:16:45;101342.81;;;17.02;71.39
76553;BME280;65395;53.168;18.156;2023-09-30T06:19:12;101344.35;;;17.06;71.49
76553;BME280;65395;53.168;18.156;2023-09-30T06:21:39;101349.34;;;17.10;71.05
76553;BME280;65395;53.168;18.156;2023-09-30T06:24:06;101361.09;;;17.11;70.46
76553;BME280;65395;53.168;18.156;2023-09-30T06:26:33;101363.98;;;17.13;70.80
76553;BME280;65395;53.168;18.156;2023-09-30T06:29:00;101367.07;;;17.13;70.38
76553;BME280;65395;53.168;18.156;2023-09-30T06:31:26;101376.09;;;17.11;69.34
76553;BME280;65395;53.168;18.156;2023-09-30T06:33:54;101381.80;;;17.06;69.17
76553;BME280;65395;53.168;18.156;2023-09-30T06:36:24;101398.91;;;17.03;68.88
76553;BME280;65395;53.168;18.156;2023-09-30T06:38:52;101390.81;;;17.01;69.07
76553;BME280;65395;53.168;18.156;2023-09-30T06:41:19;101390.33;;;16.95;68.62
76553;BME280;65395;53.168;18.156;2023-09-30T06:43:46;101398.39;;;16.95;69.15
76553;BME280;65395;53.168;18.156;2023-09-30T06:46:13;101412.18;;;16.91;67.76
76553;BME280;65395;53.168;18.156;2023-09-30T06:48:40;101413.84;;;16.81;67.50
76553;BME280;65395;53.168;18.156;2023-09-30T06:51:07;101421.67;;;16.73;67.86
76553;BME280;65395;53.168;18.156;2023-09-30T06:53:34;101426.11;;;16.68;67.53
76553;BME280;65395;53.168;18.156;2023-09-30T06:56:04;101426.16;;;16.65;67.64
76553;BME280;65395;53.168;18.156;2023-09-30T06:58:32;101424.30;;;16.64;67.40
76553;BME280;65395;53.168;18.156;2023-09-30T07:00:59;101432.08;;;16.66;66.89
76553;BME280;65395;53.168;18.156;2023-09-30T07:03:26;101427.83;;;16.62;65.81
76553;BME280;65395;53.168;18.156;2023-09-30T07:05:53;101433.43;;;16.57;65.96
76553;BME280;65395;53.168;18.156;2023-09-30T07:08:20;101432.42;;;16.50;65.51
76553;BME280;65395;53.168;18.156;2023-09-30T07:10:47;101435.10;;;16.40;65.48
76553;BME280;65395;53.168;18.156;2023-09-30T07:13:16;101431.13;;;16.36;66.49
76553;BME280;65395;53.168;18.156;2023-09-30T07:15:44;101435.81;;;16.29;65.97
76553;BME280;65395;53.168;18.156;2023-09-30T07:18:11;101430.65;;;16.19;65.95
76553;BME280;65395;53.168;18.156;2023-09-30T07:20:38;101435.80;;;16.10;66.33
76553;BME280;65395;53.168;18.156;2023-09-30T07:23:05;101443.20;;;16.04;66.22
76553;BME280;65395;53.168;18.156;2023-09-30T07:25:33;101448.17;;;16.01;66.47
76553;BME280;65395;53.168;18.156;2023-09-30T07:28:01;101442.39;;;15.99;65.96
76553;BME280;65395;53.168;18.156;2023-09-30T07:30:28;101441.48;;;15.96;66.18
76553;BME280;65395;53.168;18.156;2023-09-30T07:32:55;101440.30;;;15.96;66.24
76553;BME280;65395;53.168;18.156;2023-09-30T07:35:23;101446.77;;;15.98;66.18
76553;BME280;65395;53.168;18.156;2023-09-30T07:37:50;101456.94;;;15.99;66.01
76553;BME280;65395;53.168;18.156;2023-09-30T07:40:19;101455.84;;;15.99;65.93
76553;BME280;65395;53.168;18.156;2023-09-30T07:42:47;101457.60;;;15.99;66.09
76553;BME280;65395;53.168;18.156;2023-09-30T07:45:14;101455.70;;;15.96;66.09
76553;BME280;65395;53.168;18.156;2023-09-30T07:47:44;101469.21;;;16.00;65.68
76553;BME280;65395;53.168;18.156;2023-09-30T07:50:12;101466.73;;;15.99;65.24
76553;BME280;65395;53.168;18.156;2023-09-30T07:52:40;101468.69;;;16.00;65.53
76553;BME280;65395;53.168;18.156;2023-09-30T07:55:08;101476.50;;;16.05;65.61
76553;BME280;65395;53.168;18.156;2023-09-30T07:57:36;101478.20;;;16.08;65.14
76553;BME280;65395;53.168;18.156;2023-09-30T08:00:03;101478.27;;;16.09;65.15
76553;BME280;65395;53.168;18.156;2023-09-30T08:02:36;101479.70;;;16.12;64.90
76553;BME280;65395;53.168;18.156;2023-09-30T08:05:03;101474.28;;;16.12;64.20
76553;BME280;65395;53.168;18.156;2023-09-30T08:07:33;101487.98;;;16.19;64.47
76553;BME280;65395;53.168;18.156;2023-09-30T08:10:01;101480.66;;;16.23;64.50
76553;BME280;65395;53.168;18.156;2023-09-30T08:12:30;101477.70;;;16.26;64.51
76553;BME280;65395;53.168;18.156;2023-09-30T08:14:57;101479.25;;;16.28;64.32
76553;BME280;65395;53.168;18.156;2023-09-30T08:17:24;101482.86;;;16.33;64.62
76553;BME280;65395;53.168;18.156;2023-09-30T08:19:51;101487.02;;;16.42;64.29
76553;BME280;65395;53.168;18.156;2023-09-30T08:22:18;101498.79;;;16.51;63.05
76553;BME280;65395;53.168;18.156;2023-09-30T08:24:45;101495.77;;;16.57;62.72
76553;BME280;65395;53.168;18.156;2023-09-30T08:27:11;101496.62;;;16.66;62.85
76553;BME280;65395;53.168;18.156;2023-09-30T08:29:38;101504.96;;;16.71;62.81
76553;BME280;65395;53.168;18.156;2023-09-30T08:32:05;101508.80;;;16.75;62.48
76553;BME280;65395;53.168;18.156;2023-09-30T08:34:33;101511.99;;;16.79;62.17
76553;BME280;65395;53.168;18.156;2023-09-30T08:37:00;101513.58;;;16.79;61.52
76553;BME280;65395;53.168;18.156;2023-09-30T08:39:27;101519.03;;;16.80;61.31
76553;BME280;65395;53.168;18.156;2023-09-30T08:41:55;101520.47;;;16.83;62.01
76553;BME280;65395;53.168;18.156;2023-09-30T08:44:23;101525.70;;;16.89;61.46
76553;BME280;65395;53.168;18.156;2023-09-30T08:46:50;101526.66;;;16.91;60.78
76553;BME280;65395;53.168;18.156;2023-09-30T08:49:19;101532.71;;;16.87;60.54
76553;BME280;65395;53.168;18.156;2023-09-30T08:51:49;101538.93;;;16.84;60.09
76553;BME280;65395;53.168;18.156;2023-09-30T08:54:17;101531.79;;;16.86;60.35
76553;BME280;65395;53.168;18.156;2023-09-30T08:56:47;101533.70;;;16.95;59.97
76553;BME280;65395;53.168;18.156;2023-09-30T08:59:16;101537.09;;;17.03;59.88
76553;BME280;65395;53.168;18.156;2023-09-30T09:01:43;101548.75;;;17.04;58.79
76553;BME280;65395;53.168;18.156;2023-09-30T09:04:10;101554.93;;;17.06;58.62
76553;BME280;65395;53.168;18.156;2023-09-30T09:06:37;101551.57;;;17.18;59.55
76553;BME280;65395;53.168;18.156;2023-09-30T09:09:15;101555.73;;;17.36;59.93
76553;BME280;65395;53.168;18.156;2023-09-30T09:11:44;101565.60;;;17.54;59.43
76553;BME280;65395;53.168;18.156;2023-09-30T09:14:11;101576.37;;;17.64;59.06
76553;BME280;65395;53.168;18.156;2023-09-30T09:16:57;101575.28;;;17.68;59.08
76553;BME280;65395;53.168;18.156;2023-09-30T09:19:24;101569.35;;;17.67;59.44
76553;BME280;65395;53.168;18.156;2023-09-30T09:22:00;101571.92;;;17.67;59.08
76553;BME280;65395;53.168;18.156;2023-09-30T09:24:29;101575.17;;;17.76;58.77
76553;BME280;65395;53.168;18.156;2023-09-30T09:27:13;101566.98;;;17.91;58.09
76553;BME280;65395;53.168;18.156;2023-09-30T09:29:44;101566.85;;;18.05;57.44
76553;BME280;65395;53.168;18.156;2023-09-30T09:32:15;101566.58;;;18.14;57.85
76553;BME280;65395;53.168;18.156;2023-09-30T09:34:44;101570.44;;;18.15;57.26
76553;BME280;65395;53.168;18.156;2023-09-30T09:37:14;101577.95;;;18.17;57.45
76553;BME280;65395;53.168;18.156;2023-09-30T09:39:55;101570.26;;;18.12;57.11
76553;BME280;65395;53.168;18.156;2023-09-30T09:42:33;101576.64;;;18.08;56.55
76553;BME280;65395;53.168;18.156;2023-09-30T09:45:03;101577.07;;;18.10;56.81
76553;BME280;65395;53.168;18.156;2023-09-30T09:47:31;101574.45;;;18.11;57.25
76553;BME280;65395;53.168;18.156;2023-09-30T09:49:59;101582.05;;;18.15;56.48
76553;BME280;65395;53.168;18.156;2023-09-30T09:52:29;101574.85;;;18.23;56.28
76553;BME280;65395;53.168;18.156;2023-09-30T09:54:58;101577.61;;;18.35;55.42
76553;BME280;65395;53.168;18.156;2023-09-30T09:57:25;101577.91;;;18.47;55.84
76553;BME280;65395;53.168;18.156;2023-09-30T09:59:54;101578.73;;;18.63;54.46
76553;BME280;65395;53.168;18.156;2023-09-30T10:02:22;101593.98;;;18.77;53.91
76553;BME280;65395;53.168;18.156;2023-09-30T10:04:49;101590.86;;;18.79;53.95
76553;BME280;65395;53.168;18.156;2023-09-30T10:07:21;101592.58;;;18.90;54.34
76553;BME280;65395;53.168;18.156;2023-09-30T10:09:51;101593.45;;;19.02;53.29
76553;BME280;65395;53.168;18.156;2023-09-30T10:12:19;101600.23;;;18.87;52.82
76553;BME280;65395;53.168;18.156;2023-09-30T10:14:49;101591.80;;;18.64;53.28
76553;BME280;65395;53.168;18.156;2023-09-30T10:17:16;101587.45;;;18.55;53.79
76553;BME280;65395;53.168;18.156;2023-09-30T10:20:05;101581.73;;;18.58;54.03
76553;BME280;65395;53.168;18.156;2023-09-30T10:22:33;101580.61;;;18.75;53.45
76553;BME280;65395;53.168;18.156;2023-09-30T10:25:01;101576.95;;;18.85;52.35
76553;BME280;65395;53.168;18.156;2023-09-30T10:27:47;101585.21;;;18.98;53.06
76553;BME280;65395;53.168;18.156;2023-09-30T10:30:14;101590.59;;;19.01;52.97
76553;BME280;65395;53.168;18.156;2023-09-30T10:35:42;101604.03;;;18.78;53.21
76553;BME280;65395;53.168;18.156;2023-09-30T10:38:36;101607.64;;;18.80;53.16
76553;BME280;65395;53.168;18.156;2023-09-30T10:41:04;101607.30;;;18.90;52.56
76553;BME280;65395;53.168;18.156;2023-09-30T10:43:39;101608.92;;;18.94;52.42
76553;BME280;65395;53.168;18.156;2023-09-30T10:48:53;101616.92;;;18.85;52.44
76553;BME280;65395;53.168;18.156;2023-09-30T10:51:20;101607.16;;;18.80;52.41
76553;BME280;65395;53.168;18.156;2023-09-30T10:53:50;101609.14;;;18.81;52.34
76553;BME280;65395;53.168;18.156;2023-09-30T10:56:20;101620.00;;;18.92;51.65
76553;BME280;65395;53.168;18.156;2023-09-30T10:58:50;101613.48;;;19.03;50.45
76553;BME280;65395;53.168;18.156;2023-09-30T11:01:19;101618.52;;;19.21;49.99
76553;BME280;65395;53.168;18.156;2023-09-30T11:03:47;101619.24;;;19.38;50.19
76553;BME280;65395;53.168;18.156;2023-09-30T11:06:20;101620.70;;;19.54;50.11
76553;BME280;65395;53.168;18.156;2023-09-30T11:08:54;101614.46;;;19.76;49.52
76553;BME280;65395;53.168;18.156;2023-09-30T11:11:39;101611.75;;;19.93;49.34
76553;BME280;65395;53.168;18.156;2023-09-30T11:14:26;101608.73;;;20.08;48.96
76553;BME280;65395;53.168;18.156;2023-09-30T11:16:59;101607.41;;;20.16;49.24
76553;BME280;65395;53.168;18.156;2023-09-30T11:19:35;101618.64;;;20.28;48.82
76553;BME280;65395;53.168;18.156;2023-09-30T11:22:02;101625.05;;;20.34;47.75
76553;BME280;65395;53.168;18.156;2023-09-30T11:24:29;101623.61;;;20.22;47.12
76553;BME280;65395;53.168;18.156;2023-09-30T11:26:56;101620.57;;;20.12;47.84
76553;BME280;65395;53.168;18.156;2023-09-30T11:29:23;101624.41;;;20.08;47.79
76553;BME280;65395;53.168;18.156;2023-09-30T11:31:51;101623.41;;;19.98;48.43
76553;BME280;65395;53.168;18.156;2023-09-30T11:34:19;101624.10;;;19.88;47.73
76553;BME280;65395;53.168;18.156;2023-09-30T11:36:50;101632.47;;;19.74;48.30
76553;BME280;65395;53.168;18.156;2023-09-30T11:39:27;101619.27;;;19.62;48.86
76553;BME280;65395;53.168;18.156;2023-09-30T11:41:54;101616.71;;;19.58;49.25
76553;BME280;65395;53.168;18.156;2023-09-30T11:44:24;101621.85;;;19.56;49.51
76553;BME280;65395;53.168;18.156;2023-09-30T11:46:54;101624.63;;;19.59;49.03
76553;BME280;65395;53.168;18.156;2023-09-30T11:49:34;101620.54;;;19.60;48.70
76553;BME280;65395;53.168;18.156;2023-09-30T11:52:04;101629.00;;;19.63;48.20
76553;BME280;65395;53.168;18.156;2023-09-30T11:54:37;101615.56;;;19.68;48.54
76553;BME280;65395;53.168;18.156;2023-09-30T11:57:08;101607.29;;;19.63;48.30
76553;BME280;65395;53.168;18.156;2023-09-30T11:59:37;101618.33;;;19.69;48.45
76553;BME280;65395;53.168;18.156;2023-09-30T12:02:04;101625.55;;;19.76;47.59
76553;BME280;65395;53.168;18.156;2023-09-30T12:04:32;101625.02;;;19.74;47.48
76553;BME280;65395;53.168;18.156;2023-09-30T12:06:59;101621.70;;;19.75;47.21
76553;BME280;65395;53.168;18.156;2023-09-30T12:09:26;101619.85;;;19.81;46.57
76553;BME280;65395;53.168;18.156;2023-09-30T12:11:54;101620.52;;;19.85;46.32
76553;BME280;65395;53.168;18.156;2023-09-30T12:14:24;101612.55;;;19.92;46.55
76553;BME280;65395;53.168;18.156;2023-09-30T12:16:51;101607.55;;;20.03;46.75
76553;BME280;65395;53.168;18.156;2023-09-30T12:19:18;101613.23;;;20.19;46.65
76553;BME280;65395;53.168;18.156;2023-09-30T12:21:46;101611.85;;;20.25;46.19
76553;BME280;65395;53.168;18.156;2023-09-30T12:24:15;101611.39;;;20.21;46.06
76553;BME280;65395;53.168;18.156;2023-09-30T12:26:44;101617.80;;;20.07;46.04
76553;BME280;65395;53.168;18.156;2023-09-30T12:29:16;101619.48;;;19.93;46.32
76553;BME280;65395;53.168;18.156;2023-09-30T12:31:45;101617.38;;;19.88;46.60
76553;BME280;65395;53.168;18.156;2023-09-30T12:34:12;101620.92;;;19.91;46.61
76553;BME280;65395;53.168;18.156;2023-09-30T12:36:40;101614.26;;;19.96;46.80
76553;BME280;65395;53.168;18.156;2023-09-30T12:39:10;101613.48;;;20.04;46.69
76553;BME280;65395;53.168;18.156;2023-09-30T12:41:42;101617.68;;;20.12;46.48
76553;BME280;65395;53.168;18.156;2023-09-30T12:44:10;101610.65;;;20.10;45.59
76553;BME280;65395;53.168;18.156;2023-09-30T12:46:37;101620.48;;;20.09;45.64
76553;BME280;65395;53.168;18.156;2023-09-30T12:49:09;101626.01;;;20.06;45.30
76553;BME280;65395;53.168;18.156;2023-09-30T12:51:36;101622.60;;;20.02;45.61
76553;BME280;65395;53.168;18.156;2023-09-30T12:54:03;101619.16;;;20.03;45.56